OOL weather

Gold Coast Airport
Gold Coast, Queensland, Australia

Public forecast

Using degrees Celsius for public forecast. Weather courtesy of forecast.io.

METAR (pilot weather report)

Retrieved 2018/08/18 18:30 UTC (19 minutes ago):

YBCG 181830Z AUTO 24004KT 9999 // NCD 07/05 Q1013 RF00.0/000.0

TAF (pilot weather forecast)

Retrieved 2018/08/18 18:00 UTC (49 minutes ago):

TAF YBCG 181716Z 1818/1918 22005KT CAVOK FM182300 22014KT CAVOK FM190800 24010KT CAVOK